sensor_id;sensor_type;location;lat;lon;timestamp;P1;durP1;ratioP1;P2;durP2;ratioP2
22378;SDS011;11357;49.990;7.370;2023-04-15T00:00:36;4.20;;;1.60;;
22378;SDS011;11357;49.990;7.370;2023-04-15T00:03:02;7.53;;;1.70;;
22378;SDS011;11357;49.990;7.370;2023-04-15T00:05:29;4.77;;;1.93;;
22378;SDS011;11357;49.990;7.370;2023-04-15T00:07:55;3.70;;;1.47;;
22378;SDS011;11357;49.990;7.370;2023-04-15T00:10:23;4.47;;;1.77;;
22378;SDS011;11357;49.990;7.370;2023-04-15T00:12:49;5.27;;;1.47;;
22378;SDS011;11357;49.990;7.370;2023-04-15T00:15:15;4.23;;;1.73;;
22378;SDS011;11357;49.990;7.370;2023-04-15T00:17:41;4.90;;;1.40;;
22378;SDS011;11357;49.990;7.370;2023-04-15T00:20:07;9.93;;;2.27;;
22378;SDS011;11357;49.990;7.370;2023-04-15T00:22:33;5.90;;;1.70;;
22378;SDS011;11357;49.990;7.370;2023-04-15T00:24:58;4.37;;;1.90;;
22378;SDS011;11357;49.990;7.370;2023-04-15T00:27:24;4.80;;;1.63;;
22378;SDS011;11357;49.990;7.370;2023-04-15T00:29:50;4.43;;;1.40;;
22378;SDS011;11357;49.990;7.370;2023-04-15T00:32:15;2.70;;;1.60;;
22378;SDS011;11357;49.990;7.370;2023-04-15T00:34:41;7.93;;;1.77;;
22378;SDS011;11357;49.990;7.370;2023-04-15T00:37:08;6.53;;;1.63;;
22378;SDS011;11357;49.990;7.370;2023-04-15T00:39:34;5.03;;;1.63;;
22378;SDS011;11357;49.990;7.370;2023-04-15T00:42:01;5.77;;;1.57;;
22378;SDS011;11357;49.990;7.370;2023-04-15T00:44:28;4.67;;;1.50;;
22378;SDS011;11357;49.990;7.370;2023-04-15T00:46:53;8.00;;;1.50;;
22378;SDS011;11357;49.990;7.370;2023-04-15T00:49:19;4.43;;;1.67;;
22378;SDS011;11357;49.990;7.370;2023-04-15T00:51:45;4.57;;;1.77;;
22378;SDS011;11357;49.990;7.370;2023-04-15T00:54:11;4.63;;;1.60;;
22378;SDS011;11357;49.990;7.370;2023-04-15T00:56:37;5.63;;;1.50;;
22378;SDS011;11357;49.990;7.370;2023-04-15T00:59:03;4.40;;;1.70;;
22378;SDS011;11357;49.990;7.370;2023-04-15T01:01:33;4.30;;;1.40;;
22378;SDS011;11357;49.990;7.370;2023-04-15T01:04:00;3.50;;;1.57;;
22378;SDS011;11357;49.990;7.370;2023-04-15T01:06:26;3.10;;;1.30;;
22378;SDS011;11357;49.990;7.370;2023-04-15T01:08:52;3.93;;;1.40;;
22378;SDS011;11357;49.990;7.370;2023-04-15T01:11:19;3.43;;;1.80;;
22378;SDS011;11357;49.990;7.370;2023-04-15T01:13:45;5.20;;;1.73;;
22378;SDS011;11357;49.990;7.370;2023-04-15T01:16:12;5.70;;;1.70;;
22378;SDS011;11357;49.990;7.370;2023-04-15T01:18:38;6.40;;;1.60;;
22378;SDS011;11357;49.990;7.370;2023-04-15T01:21:04;9.23;;;2.23;;
22378;SDS011;11357;49.990;7.370;2023-04-15T01:23:32;3.80;;;1.80;;
22378;SDS011;11357;49.990;7.370;2023-04-15T01:26:01;3.73;;;1.40;;
22378;SDS011;11357;49.990;7.370;2023-04-15T01:28:27;6.57;;;1.77;;
22378;SDS011;11357;49.990;7.370;2023-04-15T01:31:09;6.83;;;1.93;;
22378;SDS011;11357;49.990;7.370;2023-04-15T01:33:36;6.50;;;1.70;;
22378;SDS011;11357;49.990;7.370;2023-04-15T01:36:03;3.33;;;1.83;;
22378;SDS011;11357;49.990;7.370;2023-04-15T01:38:30;8.33;;;1.80;;
22378;SDS011;11357;49.990;7.370;2023-04-15T01:40:57;7.37;;;1.90;;
22378;SDS011;11357;49.990;7.370;2023-04-15T01:43:23;4.40;;;1.80;;
22378;SDS011;11357;49.990;7.370;2023-04-15T01:45:49;7.00;;;1.73;;
22378;SDS011;11357;49.990;7.370;2023-04-15T01:48:15;7.63;;;1.67;;
22378;SDS011;11357;49.990;7.370;2023-04-15T01:50:41;12.53;;;1.80;;
22378;SDS011;11357;49.990;7.370;2023-04-15T01:53:07;6.00;;;2.10;;
22378;SDS011;11357;49.990;7.370;2023-04-15T01:55:33;7.23;;;2.03;;
22378;SDS011;11357;49.990;7.370;2023-04-15T01:57:59;8.60;;;1.97;;
22378;SDS011;11357;49.990;7.370;2023-04-15T02:00:25;7.13;;;1.73;;
22378;SDS011;11357;49.990;7.370;2023-04-15T02:02:51;4.60;;;1.90;;
22378;SDS011;11357;49.990;7.370;2023-04-15T02:05:17;4.20;;;1.67;;
22378;SDS011;11357;49.990;7.370;2023-04-15T02:07:42;3.60;;;1.40;;
22378;SDS011;11357;49.990;7.370;2023-04-15T02:10:09;3.40;;;1.23;;
22378;SDS011;11357;49.990;7.370;2023-04-15T02:12:37;1.97;;;1.50;;
22378;SDS011;11357;49.990;7.370;2023-04-15T02:15:03;2.80;;;1.40;;
22378;SDS011;11357;49.990;7.370;2023-04-15T02:17:29;3.57;;;1.63;;
22378;SDS011;11357;49.990;7.370;2023-04-15T02:19:55;7.90;;;1.57;;
22378;SDS011;11357;49.990;7.370;2023-04-15T02:22:21;3.97;;;1.67;;
22378;SDS011;11357;49.990;7.370;2023-04-15T02:24:46;9.53;;;2.60;;
22378;SDS011;11357;49.990;7.370;2023-04-15T02:27:15;6.13;;;2.03;;
22378;SDS011;11357;49.990;7.370;2023-04-15T02:29:45;5.13;;;1.60;;
22378;SDS011;11357;49.990;7.370;2023-04-15T02:32:11;5.93;;;1.87;;
22378;SDS011;11357;49.990;7.370;2023-04-15T02:34:38;2.80;;;1.43;;
22378;SDS011;11357;49.990;7.370;2023-04-15T02:37:06;2.80;;;1.60;;
22378;SDS011;11357;49.990;7.370;2023-04-15T02:39:36;5.47;;;2.13;;
22378;SDS011;11357;49.990;7.370;2023-04-15T02:42:02;4.00;;;1.80;;
22378;SDS011;11357;49.990;7.370;2023-04-15T02:44:28;5.67;;;1.77;;
22378;SDS011;11357;49.990;7.370;2023-04-15T02:46:55;7.63;;;2.60;;
22378;SDS011;11357;49.990;7.370;2023-04-15T02:49:22;3.00;;;1.70;;
22378;SDS011;11357;49.990;7.370;2023-04-15T02:51:48;5.97;;;1.60;;
22378;SDS011;11357;49.990;7.370;2023-04-15T02:54:23;1.50;;;1.20;;
22378;SDS011;11357;49.990;7.370;2023-04-15T02:56:49;4.03;;;1.70;;
22378;SDS011;11357;49.990;7.370;2023-04-15T02:59:15;2.43;;;1.50;;
22378;SDS011;11357;49.990;7.370;2023-04-15T03:01:40;3.43;;;1.50;;
22378;SDS011;11357;49.990;7.370;2023-04-15T03:04:06;5.17;;;1.83;;
22378;SDS011;11357;49.990;7.370;2023-04-15T03:06:33;8.40;;;1.60;;
22378;SDS011;11357;49.990;7.370;2023-04-15T03:08:59;4.27;;;1.60;;
22378;SDS011;11357;49.990;7.370;2023-04-15T03:11:26;5.97;;;1.70;;
22378;SDS011;11357;49.990;7.370;2023-04-15T03:13:53;3.37;;;1.70;;
22378;SDS011;11357;49.990;7.370;2023-04-15T03:16:18;6.83;;;1.70;;
22378;SDS011;11357;49.990;7.370;2023-04-15T03:18:44;3.33;;;1.70;;
22378;SDS011;11357;49.990;7.370;2023-04-15T03:21:10;4.33;;;1.47;;
22378;SDS011;11357;49.990;7.370;2023-04-15T03:23:36;5.90;;;1.93;;
22378;SDS011;11357;49.990;7.370;2023-04-15T03:26:02;2.83;;;1.57;;
22378;SDS011;11357;49.990;7.370;2023-04-15T03:28:28;3.70;;;1.63;;
22378;SDS011;11357;49.990;7.370;2023-04-15T03:30:55;2.43;;;1.60;;
22378;SDS011;11357;49.990;7.370;2023-04-15T03:33:20;3.77;;;1.67;;
22378;SDS011;11357;49.990;7.370;2023-04-15T03:35:46;4.70;;;1.50;;
22378;SDS011;11357;49.990;7.370;2023-04-15T03:38:12;3.80;;;1.77;;
22378;SDS011;11357;49.990;7.370;2023-04-15T03:40:39;2.97;;;1.60;;
22378;SDS011;11357;49.990;7.370;2023-04-15T03:43:05;2.30;;;1.67;;
22378;SDS011;11357;49.990;7.370;2023-04-15T03:45:31;4.77;;;1.83;;
22378;SDS011;11357;49.990;7.370;2023-04-15T03:47:57;4.23;;;1.67;;
22378;SDS011;11357;49.990;7.370;2023-04-15T03:50:23;6.37;;;1.60;;
22378;SDS011;11357;49.990;7.370;2023-04-15T03:52:48;4.90;;;1.70;;
22378;SDS011;11357;49.990;7.370;2023-04-15T03:55:14;3.37;;;1.73;;
22378;SDS011;11357;49.990;7.370;2023-04-15T03:57:40;5.63;;;1.57;;
22378;SDS011;11357;49.990;7.370;2023-04-15T04:00:06;6.40;;;1.80;;
22378;SDS011;11357;49.990;7.370;2023-04-15T04:02:34;2.63;;;1.77;;
22378;SDS011;11357;49.990;7.370;2023-04-15T04:04:59;2.43;;;1.50;;
22378;SDS011;11357;49.990;7.370;2023-04-15T04:07:25;3.90;;;1.60;;
22378;SDS011;11357;49.990;7.370;2023-04-15T04:09:51;5.40;;;2.07;;
22378;SDS011;11357;49.990;7.370;2023-04-15T04:12:16;5.43;;;1.80;;
22378;SDS011;11357;49.990;7.370;2023-04-15T04:14:42;4.97;;;2.27;;
22378;SDS011;11357;49.990;7.370;2023-04-15T04:17:08;6.30;;;2.53;;
22378;SDS011;11357;49.990;7.370;2023-04-15T04:19:33;3.40;;;2.47;;
22378;SDS011;11357;49.990;7.370;2023-04-15T04:21:59;3.90;;;2.23;;
22378;SDS011;11357;49.990;7.370;2023-04-15T04:24:25;7.03;;;2.67;;
22378;SDS011;11357;49.990;7.370;2023-04-15T04:26:51;6.50;;;2.50;;
22378;SDS011;11357;49.990;7.370;2023-04-15T04:29:16;5.00;;;2.67;;
22378;SDS011;11357;49.990;7.370;2023-04-15T04:31:42;7.23;;;2.50;;
22378;SDS011;11357;49.990;7.370;2023-04-15T04:34:07;9.37;;;2.70;;
22378;SDS011;11357;49.990;7.370;2023-04-15T04:36:33;4.00;;;2.50;;
22378;SDS011;11357;49.990;7.370;2023-04-15T04:38:59;4.93;;;2.53;;
22378;SDS011;11357;49.990;7.370;2023-04-15T04:41:25;5.60;;;1.80;;
22378;SDS011;11357;49.990;7.370;2023-04-15T04:43:51;5.47;;;2.30;;
22378;SDS011;11357;49.990;7.370;2023-04-15T04:46:16;5.27;;;1.77;;
22378;SDS011;11357;49.990;7.370;2023-04-15T04:48:42;5.83;;;2.10;;
22378;SDS011;11357;49.990;7.370;2023-04-15T04:51:08;2.03;;;1.63;;
22378;SDS011;11357;49.990;7.370;2023-04-15T04:53:34;6.83;;;1.70;;
22378;SDS011;11357;49.990;7.370;2023-04-15T04:56:01;4.83;;;1.70;;
22378;SDS011;11357;49.990;7.370;2023-04-15T04:58:27;3.27;;;1.60;;
22378;SDS011;11357;49.990;7.370;2023-04-15T05:00:53;4.63;;;1.77;;
22378;SDS011;11357;49.990;7.370;2023-04-15T05:03:18;4.67;;;1.60;;
22378;SDS011;11357;49.990;7.370;2023-04-15T05:05:44;4.70;;;1.63;;
22378;SDS011;11357;49.990;7.370;2023-04-15T05:08:10;2.50;;;1.83;;
22378;SDS011;11357;49.990;7.370;2023-04-15T05:10:36;2.70;;;1.87;;
22378;SDS011;11357;49.990;7.370;2023-04-15T05:13:01;3.10;;;1.83;;
22378;SDS011;11357;49.990;7.370;2023-04-15T05:15:27;4.70;;;1.60;;
22378;SDS011;11357;49.990;7.370;2023-04-15T05:17:53;4.20;;;2.00;;
22378;SDS011;11357;49.990;7.370;2023-04-15T05:20:19;4.97;;;1.70;;
22378;SDS011;11357;49.990;7.370;2023-04-15T05:22:44;3.63;;;1.60;;
22378;SDS011;11357;49.990;7.370;2023-04-15T05:25:10;3.73;;;1.57;;
22378;SDS011;11357;49.990;7.370;2023-04-15T05:27:36;5.53;;;2.00;;
22378;SDS011;11357;49.990;7.370;2023-04-15T05:30:02;3.23;;;1.73;;
22378;SDS011;11357;49.990;7.370;2023-04-15T05:32:27;7.97;;;1.90;;
22378;SDS011;11357;49.990;7.370;2023-04-15T05:34:53;2.63;;;1.47;;
22378;SDS011;11357;49.990;7.370;2023-04-15T05:37:19;3.87;;;1.80;;
22378;SDS011;11357;49.990;7.370;2023-04-15T05:39:47;3.07;;;1.60;;
22378;SDS011;11357;49.990;7.370;2023-04-15T05:42:13;4.27;;;1.80;;
22378;SDS011;11357;49.990;7.370;2023-04-15T05:44:39;5.67;;;2.00;;
22378;SDS011;11357;49.990;7.370;2023-04-15T05:47:05;4.73;;;1.77;;
22378;SDS011;11357;49.990;7.370;2023-04-15T05:49:32;2.20;;;1.60;;
22378;SDS011;11357;49.990;7.370;2023-04-15T05:51:58;4.83;;;1.70;;
22378;SDS011;11357;49.990;7.370;2023-04-15T05:54:23;6.67;;;2.23;;
22378;SDS011;11357;49.990;7.370;2023-04-15T05:56:50;6.60;;;1.70;;
22378;SDS011;11357;49.990;7.370;2023-04-15T05:59:16;3.80;;;1.63;;
22378;SDS011;11357;49.990;7.370;2023-04-15T06:01:41;3.10;;;1.70;;
22378;SDS011;11357;49.990;7.370;2023-04-15T06:04:07;2.80;;;1.53;;
22378;SDS011;11357;49.990;7.370;2023-04-15T06:06:33;4.73;;;1.60;;
22378;SDS011;11357;49.990;7.370;2023-04-15T06:08:59;3.27;;;1.73;;
22378;SDS011;11357;49.990;7.370;2023-04-15T06:11:24;2.57;;;1.87;;
22378;SDS011;11357;49.990;7.370;2023-04-15T06:13:51;3.83;;;2.00;;
22378;SDS011;11357;49.990;7.370;2023-04-15T06:16:16;2.53;;;1.70;;
22378;SDS011;11357;49.990;7.370;2023-04-15T06:18:42;5.10;;;1.80;;
22378;SDS011;11357;49.990;7.370;2023-04-15T06:21:08;5.20;;;1.83;;
22378;SDS011;11357;49.990;7.370;2023-04-15T06:23:34;4.07;;;2.07;;
22378;SDS011;11357;49.990;7.370;2023-04-15T06:26:00;3.47;;;1.57;;
22378;SDS011;11357;49.990;7.370;2023-04-15T06:28:26;7.73;;;1.80;;
22378;SDS011;11357;49.990;7.370;2023-04-15T06:30:52;4.17;;;1.93;;
22378;SDS011;11357;49.990;7.370;2023-04-15T06:33:18;8.60;;;2.20;;
22378;SDS011;11357;49.990;7.370;2023-04-15T06:35:44;6.70;;;2.30;;
22378;SDS011;11357;49.990;7.370;2023-04-15T06:38:11;4.30;;;1.90;;
22378;SDS011;11357;49.990;7.370;2023-04-15T06:40:37;7.97;;;1.87;;
22378;SDS011;11357;49.990;7.370;2023-04-15T06:43:02;4.50;;;2.10;;
22378;SDS011;11357;49.990;7.370;2023-04-15T06:45:29;6.60;;;2.27;;
22378;SDS011;11357;49.990;7.370;2023-04-15T06:47:55;8.07;;;2.10;;
22378;SDS011;11357;49.990;7.370;2023-04-15T06:50:21;3.43;;;1.90;;
22378;SDS011;11357;49.990;7.370;2023-04-15T06:52:47;4.63;;;1.90;;
22378;SDS011;11357;49.990;7.370;2023-04-15T06:55:12;4.67;;;2.00;;
22378;SDS011;11357;49.990;7.370;2023-04-15T06:57:38;2.90;;;1.77;;
22378;SDS011;11357;49.990;7.370;2023-04-15T07:00:04;8.60;;;1.90;;
22378;SDS011;11357;49.990;7.370;2023-04-15T07:02:31;4.00;;;1.90;;
22378;SDS011;11357;49.990;7.370;2023-04-15T07:04:57;4.13;;;2.00;;
22378;SDS011;11357;49.990;7.370;2023-04-15T07:07:23;6.67;;;2.03;;
22378;SDS011;11357;49.990;7.370;2023-04-15T07:09:49;3.63;;;1.87;;
22378;SDS011;11357;49.990;7.370;2023-04-15T07:12:17;7.60;;;1.73;;
22378;SDS011;11357;49.990;7.370;2023-04-15T07:14:43;8.97;;;2.17;;
22378;SDS011;11357;49.990;7.370;2023-04-15T07:17:09;4.20;;;2.93;;
22378;SDS011;11357;49.990;7.370;2023-04-15T07:19:35;9.70;;;2.60;;
22378;SDS011;11357;49.990;7.370;2023-04-15T07:22:02;5.53;;;2.33;;
22378;SDS011;11357;49.990;7.370;2023-04-15T07:24:28;6.33;;;2.10;;
22378;SDS011;11357;49.990;7.370;2023-04-15T07:26:54;9.27;;;2.70;;
22378;SDS011;11357;49.990;7.370;2023-04-15T07:29:23;7.57;;;2.37;;
22378;SDS011;11357;49.990;7.370;2023-04-15T07:31:49;4.57;;;2.57;;
22378;SDS011;11357;49.990;7.370;2023-04-15T07:34:15;7.33;;;2.53;;
22378;SDS011;11357;49.990;7.370;2023-04-15T07:36:41;4.47;;;2.53;;
22378;SDS011;11357;49.990;7.370;2023-04-15T07:39:07;5.03;;;2.50;;
22378;SDS011;11357;49.990;7.370;2023-04-15T07:41:32;9.67;;;2.30;;
22378;SDS011;11357;49.990;7.370;2023-04-15T07:43:58;6.80;;;2.17;;
22378;SDS011;11357;49.990;7.370;2023-04-15T07:46:24;5.50;;;1.80;;
22378;SDS011;11357;49.990;7.370;2023-04-15T07:48:51;5.20;;;2.10;;
22378;SDS011;11357;49.990;7.370;2023-04-15T07:51:17;6.40;;;2.27;;
22378;SDS011;11357;49.990;7.370;2023-04-15T07:53:46;5.63;;;2.33;;
22378;SDS011;11357;49.990;7.370;2023-04-15T07:56:13;6.63;;;2.00;;
22378;SDS011;11357;49.990;7.370;2023-04-15T07:58:39;6.70;;;2.13;;
22378;SDS011;11357;49.990;7.370;2023-04-15T08:01:04;12.00;;;2.23;;
22378;SDS011;11357;49.990;7.370;2023-04-15T08:03:30;2.73;;;1.90;;
22378;SDS011;11357;49.990;7.370;2023-04-15T08:05:56;9.57;;;2.20;;
22378;SDS011;11357;49.990;7.370;2023-04-15T08:08:22;3.80;;;1.77;;
22378;SDS011;11357;49.990;7.370;2023-04-15T08:10:48;7.93;;;2.50;;
22378;SDS011;11357;49.990;7.370;2023-04-15T08:13:14;5.57;;;2.43;;
22378;SDS011;11357;49.990;7.370;2023-04-15T08:15:40;6.80;;;2.00;;
22378;SDS011;11357;49.990;7.370;2023-04-15T08:18:06;4.40;;;1.90;;
22378;SDS011;11357;49.990;7.370;2023-04-15T08:20:32;4.83;;;2.27;;
22378;SDS011;11357;49.990;7.370;2023-04-15T08:22:57;5.00;;;2.40;;
22378;SDS011;11357;49.990;7.370;2023-04-15T08:25:23;4.77;;;1.90;;
22378;SDS011;11357;49.990;7.370;2023-04-15T08:27:49;5.80;;;2.27;;
22378;SDS011;11357;49.990;7.370;2023-04-15T08:30:14;7.13;;;2.27;;
22378;SDS011;11357;49.990;7.370;2023-04-15T08:32:49;5.10;;;2.53;;
22378;SDS011;11357;49.990;7.370;2023-04-15T08:35:15;6.77;;;2.30;;
22378;SDS011;11357;49.990;7.370;2023-04-15T08:37:41;7.30;;;2.10;;
22378;SDS011;11357;49.990;7.370;2023-04-15T08:40:06;7.90;;;2.13;;
22378;SDS011;11357;49.990;7.370;2023-04-15T08:42:40;5.10;;;1.70;;
22378;SDS011;11357;49.990;7.370;2023-04-15T08:45:08;3.90;;;1.83;;
22378;SDS011;11357;49.990;7.370;2023-04-15T08:47:37;5.30;;;1.90;;
22378;SDS011;11357;49.990;7.370;2023-04-15T08:50:04;6.67;;;1.87;;
22378;SDS011;11357;49.990;7.370;2023-04-15T08:52:33;8.77;;;2.00;;
22378;SDS011;11357;49.990;7.370;2023-04-15T08:54:59;4.20;;;2.00;;
22378;SDS011;11357;49.990;7.370;2023-04-15T08:57:27;4.93;;;1.80;;
22378;SDS011;11357;49.990;7.370;2023-04-15T08:59:56;5.87;;;2.10;;
22378;SDS011;11357;49.990;7.370;2023-04-15T09:02:25;5.07;;;2.00;;
22378;SDS011;11357;49.990;7.370;2023-04-15T09:04:51;5.80;;;2.50;;
22378;SDS011;11357;49.990;7.370;2023-04-15T09:07:17;5.83;;;2.20;;
22378;SDS011;11357;49.990;7.370;2023-04-15T09:09:43;5.77;;;2.00;;
22378;SDS011;11357;49.990;7.370;2023-04-15T09:12:09;4.93;;;2.57;;
22378;SDS011;11357;49.990;7.370;2023-04-15T09:14:36;5.30;;;2.70;;
22378;SDS011;11357;49.990;7.370;2023-04-15T09:17:04;10.27;;;2.83;;
22378;SDS011;11357;49.990;7.370;2023-04-15T09:19:34;7.07;;;3.00;;
22378;SDS011;11357;49.990;7.370;2023-04-15T09:21:59;7.20;;;3.13;;
22378;SDS011;11357;49.990;7.370;2023-04-15T09:24:33;9.53;;;2.70;;
22378;SDS011;11357;49.990;7.370;2023-04-15T09:27:01;8.00;;;3.10;;
22378;SDS011;11357;49.990;7.370;2023-04-15T09:29:27;6.60;;;3.80;;
22378;SDS011;11357;49.990;7.370;2023-04-15T09:31:53;8.00;;;3.87;;
22378;SDS011;11357;49.990;7.370;2023-04-15T09:34:19;8.37;;;3.40;;
22378;SDS011;11357;49.990;7.370;2023-04-15T09:36:55;9.37;;;4.37;;
22378;SDS011;11357;49.990;7.370;2023-04-15T09:39:21;9.43;;;4.47;;
22378;SDS011;11357;49.990;7.370;2023-04-15T09:42:08;8.13;;;4.23;;
22378;SDS011;11357;49.990;7.370;2023-04-15T09:44:33;4.80;;;3.43;;
22378;SDS011;11357;49.990;7.370;2023-04-15T09:46:59;7.73;;;4.57;;
22378;SDS011;11357;49.990;7.370;2023-04-15T09:49:25;7.97;;;4.30;;
22378;SDS011;11357;49.990;7.370;2023-04-15T09:51:53;9.30;;;4.10;;
22378;SDS011;11357;49.990;7.370;2023-04-15T09:54:23;7.13;;;3.80;;
22378;SDS011;11357;49.990;7.370;2023-04-15T09:56:49;6.50;;;3.73;;
22378;SDS011;11357;49.990;7.370;2023-04-15T09:59:15;10.13;;;4.10;;
22378;SDS011;11357;49.990;7.370;2023-04-15T10:01:40;6.43;;;4.00;;
22378;SDS011;11357;49.990;7.370;2023-04-15T10:04:07;13.23;;;4.20;;
22378;SDS011;11357;49.990;7.370;2023-04-15T10:06:33;5.60;;;3.53;;
22378;SDS011;11357;49.990;7.370;2023-04-15T10:09:00;7.20;;;3.70;;
22378;SDS011;11357;49.990;7.370;2023-04-15T10:11:27;12.73;;;4.57;;
22378;SDS011;11357;49.990;7.370;2023-04-15T10:13:53;8.40;;;4.13;;
22378;SDS011;11357;49.990;7.370;2023-04-15T10:16:21;7.10;;;3.90;;
22378;SDS011;11357;49.990;7.370;2023-04-15T10:18:53;5.10;;;3.80;;
22378;SDS011;11357;49.990;7.370;2023-04-15T10:21:20;5.53;;;3.90;;
22378;SDS011;11357;49.990;7.370;2023-04-15T10:23:47;7.37;;;4.10;;
22378;SDS011;11357;49.990;7.370;2023-04-15T10:26:14;7.57;;;4.17;;
22378;SDS011;11357;49.990;7.370;2023-04-15T10:28:41;6.87;;;4.20;;
22378;SDS011;11357;49.990;7.370;2023-04-15T10:31:13;6.17;;;4.37;;
22378;SDS011;11357;49.990;7.370;2023-04-15T10:33:40;8.70;;;5.03;;
22378;SDS011;11357;49.990;7.370;2023-04-15T10:36:07;7.53;;;4.13;;
22378;SDS011;11357;49.990;7.370;2023-04-15T10:41:19;5.47;;;3.67;;
22378;SDS011;11357;49.990;7.370;2023-04-15T10:43:53;6.70;;;3.63;;
22378;SDS011;11357;49.990;7.370;2023-04-15T10:46:21;6.80;;;4.30;;
22378;SDS011;11357;49.990;7.370;2023-04-15T10:48:52;6.10;;;3.60;;
22378;SDS011;11357;49.990;7.370;2023-04-15T10:51:27;7.37;;;3.53;;
22378;SDS011;11357;49.990;7.370;2023-04-15T10:54:00;11.43;;;3.77;;
22378;SDS011;11357;49.990;7.370;2023-04-15T10:56:29;9.17;;;4.23;;
22378;SDS011;11357;49.990;7.370;2023-04-15T10:58:57;13.20;;;4.33;;
22378;SDS011;11357;49.990;7.370;2023-04-15T11:01:37;8.93;;;3.40;;
22378;SDS011;11357;49.990;7.370;2023-04-15T11:05:02;8.27;;;3.00;;
22378;SDS011;11357;49.990;7.370;2023-04-15T11:07:35;5.77;;;3.03;;
22378;SDS011;11357;49.990;7.370;2023-04-15T11:12:50;3.53;;;2.40;;
22378;SDS011;11357;49.990;7.370;2023-04-15T11:23:19;3.57;;;2.60;;
22378;SDS011;11357;49.990;7.370;2023-04-15T11:25:55;3.37;;;2.10;;
22378;SDS011;11357;49.990;7.370;2023-04-15T11:28:24;2.70;;;2.07;;
22378;SDS011;11357;49.990;7.370;2023-04-15T11:30:56;4.90;;;2.27;;
22378;SDS011;11357;49.990;7.370;2023-04-15T11:33:23;4.43;;;2.60;;
22378;SDS011;11357;49.990;7.370;2023-04-15T11:35:49;4.83;;;2.13;;
22378;SDS011;11357;49.990;7.370;2023-04-15T11:38:18;8.30;;;2.73;;
22378;SDS011;11357;49.990;7.370;2023-04-15T11:40:44;5.13;;;3.33;;
22378;SDS011;11357;49.990;7.370;2023-04-15T11:45:44;3.97;;;2.43;;
22378;SDS011;11357;49.990;7.370;2023-04-15T11:48:25;6.60;;;3.37;;
22378;SDS011;11357;49.990;7.370;2023-04-15T11:51:02;5.20;;;3.30;;
22378;SDS011;11357;49.990;7.370;2023-04-15T11:53:36;8.20;;;3.20;;
22378;SDS011;11357;49.990;7.370;2023-04-15T11:56:04;4.63;;;3.03;;
22378;SDS011;11357;49.990;7.370;2023-04-15T11:58:32;6.77;;;3.17;;
22378;SDS011;11357;49.990;7.370;2023-04-15T12:00:59;5.33;;;2.60;;
22378;SDS011;11357;49.990;7.370;2023-04-15T12:03:26;4.80;;;2.73;;
22378;SDS011;11357;49.990;7.370;2023-04-15T12:11:37;4.47;;;2.67;;
22378;SDS011;11357;49.990;7.370;2023-04-15T12:14:15;3.30;;;2.23;;
22378;SDS011;11357;49.990;7.370;2023-04-15T12:16:45;5.53;;;2.33;;
22378;SDS011;11357;49.990;7.370;2023-04-15T12:19:16;3.57;;;2.40;;
22378;SDS011;11357;49.990;7.370;2023-04-15T12:21:46;3.57;;;2.00;;
22378;SDS011;11357;49.990;7.370;2023-04-15T12:24:12;2.00;;;1.70;;
22378;SDS011;11357;49.990;7.370;2023-04-15T12:26:45;5.40;;;2.80;;
22378;SDS011;11357;49.990;7.370;2023-04-15T12:29:18;3.53;;;2.90;;
22378;SDS011;11357;49.990;7.370;2023-04-15T12:31:51;4.33;;;3.10;;
22378;SDS011;11357;49.990;7.370;2023-04-15T12:34:25;3.73;;;1.90;;
22378;SDS011;11357;49.990;7.370;2023-04-15T12:36:53;5.13;;;2.17;;
22378;SDS011;11357;49.990;7.370;2023-04-15T12:39:22;2.00;;;1.87;;
22378;SDS011;11357;49.990;7.370;2023-04-15T12:41:49;4.17;;;2.47;;
22378;SDS011;11357;49.990;7.370;2023-04-15T12:44:15;3.30;;;2.20;;
22378;SDS011;11357;49.990;7.370;2023-04-15T12:46:41;6.07;;;5.67;;
22378;SDS011;11357;49.990;7.370;2023-04-15T12:49:07;3.90;;;2.07;;
22378;SDS011;11357;49.990;7.370;2023-04-15T12:51:33;2.57;;;2.00;;
22378;SDS011;11357;49.990;7.370;2023-04-15T12:53:58;2.90;;;1.47;;
22378;SDS011;11357;49.990;7.370;2023-04-15T12:56:24;2.23;;;1.50;;
22378;SDS011;11357;49.990;7.370;2023-04-15T12:58:50;2.60;;;1.37;;
22378;SDS011;11357;49.990;7.370;2023-04-15T13:01:16;2.13;;;1.60;;
22378;SDS011;11357;49.990;7.370;2023-04-15T13:03:42;3.87;;;1.70;;
22378;SDS011;11357;49.990;7.370;2023-04-15T13:06:08;2.73;;;1.90;;
22378;SDS011;11357;49.990;7.370;2023-04-15T13:08:34;1.17;;;1.10;;
22378;SDS011;11357;49.990;7.370;2023-04-15T13:11:00;2.40;;;1.10;;
22378;SDS011;11357;49.990;7.370;2023-04-15T13:13:26;1.70;;;1.33;;
22378;SDS011;11357;49.990;7.370;2023-04-15T13:15:51;2.10;;;1.80;;
22378;SDS011;11357;49.990;7.370;2023-04-15T13:18:17;2.37;;;1.63;;
22378;SDS011;11357;49.990;7.370;2023-04-15T13:20:43;3.33;;;2.13;;
22378;SDS011;11357;49.990;7.370;2023-04-15T13:23:08;2.07;;;1.60;;
22378;SDS011;11357;49.990;7.370;2023-04-15T13:25:34;5.33;;;2.13;;
22378;SDS011;11357;49.990;7.370;2023-04-15T13:28:00;4.10;;;1.93;;
22378;SDS011;11357;49.990;7.370;2023-04-15T13:30:26;2.10;;;1.90;;
22378;SDS011;11357;49.990;7.370;2023-04-15T13:32:52;5.13;;;1.93;;
22378;SDS011;11357;49.990;7.370;2023-04-15T13:35:18;1.87;;;1.70;;
22378;SDS011;11357;49.990;7.370;2023-04-15T13:37:45;3.07;;;1.80;;
22378;SDS011;11357;49.990;7.370;2023-04-15T13:40:11;3.93;;;2.10;;
22378;SDS011;11357;49.990;7.370;2023-04-15T13:42:37;3.03;;;2.00;;
22378;SDS011;11357;49.990;7.370;2023-04-15T13:45:02;3.03;;;2.50;;
22378;SDS011;11357;49.990;7.370;2023-04-15T13:47:28;3.50;;;2.30;;
22378;SDS011;11357;49.990;7.370;2023-04-15T13:49:54;3.67;;;2.30;;
22378;SDS011;11357;49.990;7.370;2023-04-15T13:52:20;3.00;;;2.20;;
22378;SDS011;11357;49.990;7.370;2023-04-15T13:54:47;14.17;;;13.30;;
22378;SDS011;11357;49.990;7.370;2023-04-15T13:57:13;3.97;;;3.57;;
22378;SDS011;11357;49.990;7.370;2023-04-15T13:59:38;4.27;;;2.53;;
22378;SDS011;11357;49.990;7.370;2023-04-15T14:02:04;5.50;;;2.70;;
22378;SDS011;11357;49.990;7.370;2023-04-15T14:04:30;4.47;;;3.43;;
22378;SDS011;11357;49.990;7.370;2023-04-15T14:06:57;3.77;;;2.67;;
22378;SDS011;11357;49.990;7.370;2023-04-15T14:09:22;4.93;;;3.00;;
22378;SDS011;11357;49.990;7.370;2023-04-15T14:11:51;3.93;;;3.13;;
22378;SDS011;11357;49.990;7.370;2023-04-15T14:14:17;2.60;;;2.40;;
22378;SDS011;11357;49.990;7.370;2023-04-15T14:16:42;21.87;;;20.53;;
22378;SDS011;11357;49.990;7.370;2023-04-15T14:19:08;126.10;;;115.93;;
22378;SDS011;11357;49.990;7.370;2023-04-15T14:21:34;151.53;;;133.90;;
22378;SDS011;11357;49.990;7.370;2023-04-15T14:23:59;1860.33;;;517.50;;
22378;SDS011;11357;49.990;7.370;2023-04-15T14:26:25;1999.90;;;656.00;;
22378;SDS011;11357;49.990;7.370;2023-04-15T14:28:51;1970.23;;;781.90;;
22378;SDS011;11357;49.990;7.370;2023-04-15T14:31:17;1134.63;;;504.60;;
22378;SDS011;11357;49.990;7.370;2023-04-15T14:33:43;1999.90;;;686.93;;
22378;SDS011;11357;49.990;7.370;2023-04-15T14:36:09;1009.33;;;499.70;;
22378;SDS011;11357;49.990;7.370;2023-04-15T14:38:35;403.03;;;308.77;;
22378;SDS011;11357;49.990;7.370;2023-04-15T14:41:05;1999.90;;;406.50;;
22378;SDS011;11357;49.990;7.370;2023-04-15T14:43:32;1921.67;;;788.57;;
22378;SDS011;11357;49.990;7.370;2023-04-15T14:45:58;1999.90;;;869.83;;
22378;SDS011;11357;49.990;7.370;2023-04-15T14:48:23;1876.50;;;873.23;;
22378;SDS011;11357;49.990;7.370;2023-04-15T14:50:49;485.07;;;181.17;;
22378;SDS011;11357;49.990;7.370;2023-04-15T14:53:15;366.93;;;316.90;;
22378;SDS011;11357;49.990;7.370;2023-04-15T14:55:41;501.50;;;253.83;;
22378;SDS011;11357;49.990;7.370;2023-04-15T14:58:07;252.07;;;230.73;;
22378;SDS011;11357;49.990;7.370;2023-04-15T15:00:33;1999.90;;;700.37;;
22378;SDS011;11357;49.990;7.370;2023-04-15T15:02:59;1842.70;;;702.53;;